Time;durP1;ratioP1;P1;durP2;ratioP2;P2;SDS_P1;SDS_P2;PMS_P1;PMS_P2;Temp;Humidity;BMP_temperature;BMP_pressure;BME280_temperature;BME280_humidity;BME280_pressure;Samples;Min_cycle;Max_cycle;Signal;HPM_P1;HPM_P2
2022/08/03 00:01:00;;;;;;;6.10;2.17;;;;;;;18.80;100.00;100508.97;5090036;27;20365;-78
2022/08/03 00:03:25;;;;;;;4.72;2.60;;;;;;;18.75;100.00;100508.53;5058968;28;20029;-78
2022/08/03 00:05:51;;;;;;;6.32;2.28;;;;;;;18.70;100.00;100511.56;5072781;28;20086;-78
2022/08/03 00:08:16;;;;;;;6.88;2.22;;;;;;;18.70;100.00;100519.53;5057727;28;20028;-78
2022/08/03 00:10:41;;;;;;;6.78;2.42;;;;;;;18.60;100.00;100505.28;5056120;28;20029;-78
2022/08/03 00:13:07;;;;;;;5.55;2.33;;;;;;;18.62;100.00;100513.16;5097605;27;20021;-77
2022/08/03 00:15:32;;;;;;;3.45;2.28;;;;;;;18.65;100.00;100531.56;5073822;28;20382;-77
2022/08/03 00:17:58;;;;;;;5.95;2.90;;;;;;;18.68;100.00;100539.28;5056645;28;20842;-76
2022/08/03 00:20:23;;;;;;;5.70;3.13;;;;;;;18.60;100.00;100531.91;5057337;28;20032;-77
2022/08/03 00:22:49;;;;;;;5.30;3.10;;;;;;;18.36;100.00;100492.13;5063159;28;20032;-77
2022/08/03 00:25:14;;;;;;;5.07;2.53;;;;;;;18.41;100.00;100505.06;5065921;28;20032;-77
2022/08/03 00:27:39;;;;;;;3.75;2.50;;;;;;;18.50;100.00;100519.44;5070257;28;20032;-77
2022/08/03 00:30:07;;;;;;;5.55;2.70;;;;;;;18.38;100.00;100511.47;5059312;28;20027;-77
2022/08/03 00:32:32;;;;;;;12.02;2.95;;;;;;;18.33;100.00;100500.38;5062097;28;20479;-77
2022/08/03 00:34:58;;;;;;;3.78;2.13;;;;;;;18.38;100.00;100508.81;5070382;28;20112;-77
2022/08/03 00:37:23;;;;;;;5.35;2.40;;;;;;;18.31;100.00;100504.13;5069583;28;20112;-77
2022/08/03 00:39:48;;;;;;;8.38;3.03;;;;;;;18.32;100.00;100511.97;5075293;28;20466;-77
2022/08/03 00:42:14;;;;;;;5.40;2.95;;;;;;;18.24;100.00;100509.09;5074994;28;20024;-77
2022/08/03 00:44:41;;;;;;;4.18;2.83;;;;;;;18.36;100.00;100537.38;5074569;28;20505;-77
2022/08/03 00:47:06;;;;;;;4.32;2.83;;;;;;;18.14;100.00;100501.97;5057514;28;20028;-77
2022/08/03 00:49:32;;;;;;;4.82;2.83;;;;;;;18.31;100.00;100534.25;5056908;28;20387;-76
2022/08/03 00:51:59;;;;;;;9.98;3.10;;;;;;;18.27;100.00;100530.13;5059103;28;20140;-76
2022/08/03 00:54:24;;;;;;;3.50;2.47;;;;;;;18.24;100.00;100525.06;5056506;28;20033;-76
2022/08/03 00:56:50;;;;;;;3.92;2.17;;;;;;;18.05;100.00;100492.91;5083417;28;20805;-77
2022/08/03 00:59:15;;;;;;;3.97;2.58;;;;;;;18.10;100.00;100519.13;5085749;28;20024;-77
2022/08/03 01:01:41;;;;;;;4.68;2.80;;;;;;;18.13;100.00;100510.91;5073630;28;20025;-76
2022/08/03 01:04:06;;;;;;;5.38;2.47;;;;;;;17.96;100.00;100501.63;5066586;28;20039;-76
2022/08/03 01:06:44;;;;;;;5.03;2.78;;;;;;;18.08;100.00;100521.91;5073708;28;20486;-76
2022/08/03 01:09:26;;;;;;;4.15;2.63;;;;;;;18.05;100.00;100524.81;5082215;28;20060;-76
2022/08/03 01:12:07;;;;;;;6.70;2.80;;;;;;;18.03;100.00;100515.25;5073379;28;20433;-76
2022/08/03 01:14:50;;;;;;;4.28;2.70;;;;;;;17.85;100.00;100496.28;5058715;28;20032;-76
2022/08/03 01:17:18;;;;;;;8.38;3.58;;;;;;;17.97;100.00;100513.94;5073232;28;20024;-76
2022/08/03 01:19:55;;;;;;;6.70;2.80;;;;;;;17.94;100.00;100519.50;5086960;28;20024;-77
2022/08/03 01:22:54;;;;;;;6.43;2.60;;;;;;;17.91;100.00;100506.47;5079703;28;20044;-77
2022/08/03 01:25:43;;;;;;;4.22;2.50;;;;;;;17.78;100.00;100495.06;5063709;28;20036;-77
2022/08/03 01:28:27;;;;;;;4.88;2.67;;;;;;;17.83;100.00;100508.88;5048310;28;20039;-76
2022/08/03 01:30:55;;;;;;;4.45;2.63;;;;;;;17.65;100.00;100483.72;5073060;28;20027;-77
2022/08/03 01:33:27;;;;;;;6.07;2.83;;;;;;;17.78;100.00;100505.69;5056766;28;20479;-78
2022/08/03 01:36:07;;;;;;;4.28;2.55;;;;;;;17.70;100.00;100497.50;5071568;28;20037;-77
2022/08/03 01:38:41;;;;;;;5.22;2.88;;;;;;;17.38;100.00;100445.00;5078322;28;20064;-77
2022/08/03 01:41:09;;;;;;;6.75;3.10;;;;;;;17.69;100.00;100501.97;5071791;28;20079;-78
2022/08/03 01:43:35;;;;;;;5.75;2.92;;;;;;;17.60;100.00;100485.91;5076295;28;20116;-78
2022/08/03 01:46:02;;;;;;;5.25;2.53;;;;;;;17.60;100.00;100492.06;5082534;28;20016;-77
2022/08/03 01:48:28;;;;;;;6.90;2.97;;;;;;;17.46;100.00;100472.81;5078628;28;20103;-77
2022/08/03 01:50:54;;;;;;;11.13;3.50;;;;;;;17.45;100.00;100479.06;5068899;28;20112;-77
2022/08/03 01:53:21;;;;;;;4.88;2.63;;;;;;;17.51;100.00;100492.72;5058887;28;20028;-78
2022/08/03 01:55:48;;;;;;;4.35;2.58;;;;;;;17.54;100.00;100500.44;5068166;28;20040;-78
2022/08/03 01:58:15;;;;;;;4.88;3.33;;;;;;;17.52;100.00;100498.88;5071586;28;20020;-80
2022/08/03 02:00:41;;;;;;;6.97;3.63;;;;;;;17.44;100.00;100486.19;5066520;28;20095;-78
2022/08/03 02:03:07;;;;;;;4.60;2.95;;;;;;;17.17;100.00;100441.34;5084501;28;20112;-76
2022/08/03 02:05:33;;;;;;;10.23;3.38;;;;;;;17.43;100.00;100484.50;5077040;28;20111;-76
2022/08/03 02:08:00;;;;;;;5.68;3.10;;;;;;;17.29;100.00;100476.75;5068999;28;20496;-76
2022/08/03 02:10:26;;;;;;;5.68;3.20;;;;;;;17.40;100.00;100492.72;5069024;28;20107;-76
2022/08/03 02:12:52;;;;;;;10.25;3.35;;;;;;;17.05;100.00;100441.44;5059153;28;20113;-78
2022/08/03 02:15:18;;;;;;;5.90;3.55;;;;;;;17.34;100.00;100491.38;5081807;28;20446;-78
2022/08/03 02:17:44;;;;;;;9.10;3.42;;;;;;;17.31;100.00;100488.09;5059997;28;20119;-78
2022/08/03 02:20:11;;;;;;;5.03;3.30;;;;;;;17.31;100.00;100501.38;5037435;28;20016;-78
2022/08/03 02:22:39;;;;;;;5.70;3.42;;;;;;;17.26;100.00;100495.59;5083418;28;20107;-78
2022/08/03 02:25:07;;;;;;;4.43;2.90;;;;;;;17.07;100.00;100474.88;5067486;28;20025;-78
2022/08/03 02:27:33;;;;;;;5.90;3.00;;;;;;;17.20;100.00;100499.53;5074858;28;20036;-78
2022/08/03 02:30:03;;;;;;;7.07;3.38;;;;;;;17.17;100.00;100489.16;5058837;28;20036;-77
2022/08/03 02:32:31;;;;;;;5.72;2.97;;;;;;;17.06;100.00;100481.16;5061646;28;20479;-76
2022/08/03 02:34:58;;;;;;;5.00;3.25;;;;;;;17.07;100.00;100477.53;5064762;28;20100;-76
2022/08/03 02:37:27;;;;;;;6.00;3.53;;;;;;;16.87;100.00;100449.00;5056840;28;20033;-77
2022/08/03 02:40:01;;;;;;;8.35;3.40;;;;;;;16.96;100.00;100468.69;5059670;28;20446;-76
2022/08/03 02:42:29;;;;;;;4.95;3.70;;;;;;;17.06;100.00;100483.81;5059038;28;20133;-76
2022/08/03 02:44:55;;;;;;;5.80;3.13;;;;;;;16.98;100.00;100472.94;5083705;28;20527;-76
2022/08/03 02:47:21;;;;;;;7.88;3.72;;;;;;;16.92;100.00;100473.41;5056247;28;20527;-76
2022/08/03 02:49:49;;;;;;;5.03;2.80;;;;;;;16.96;100.00;100482.81;5071607;28;20024;-76
2022/08/03 02:52:14;;;;;;;6.75;2.92;;;;;;;16.74;100.00;100441.09;5072769;28;20059;-76
2022/08/03 02:54:40;;;;;;;6.68;3.20;;;;;;;16.90;100.00;100477.94;5064693;28;20037;-76
2022/08/03 02:57:07;;;;;;;10.18;3.17;;;;;;;16.86;100.00;100472.03;5070165;28;20044;-76
2022/08/03 02:59:33;;;;;;;4.75;2.75;;;;;;;16.78;100.00;100455.00;5068393;28;20096;-76
2022/08/03 03:01:59;;;;;;;5.57;3.60;;;;;;;16.86;100.00;100473.88;5063400;28;20442;-76
2022/08/03 03:04:26;;;;;;;7.90;3.30;;;;;;;16.93;100.00;100485.72;5049737;28;20029;-77
2022/08/03 03:06:52;;;;;;;8.52;3.28;;;;;;;16.85;100.00;100482.78;5049863;28;20027;-77
2022/08/03 03:09:18;;;;;;;9.65;3.47;;;;;;;16.77;100.00;100477.19;5080911;28;20100;-77
2022/08/03 03:11:44;;;;;;;4.82;3.35;;;;;;;16.75;100.00;100479.13;5051268;28;20051;-76
2022/08/03 03:14:12;;;;;;;5.25;3.25;;;;;;;16.52;100.00;100445.44;5078615;28;20028;-78
2022/08/03 03:16:38;;;;;;;8.18;4.22;;;;;;;16.56;100.00;100466.34;5052648;28;20025;-78
2022/08/03 03:19:03;;;;;;;5.20;3.20;;;;;;;16.64;100.00;100479.06;5080686;28;20510;-78
2022/08/03 03:21:29;;;;;;;5.82;4.05;;;;;;;16.41;100.00;100448.03;5073310;28;20135;-78
2022/08/03 03:23:55;;;;;;;6.18;3.85;;;;;;;16.50;100.00;100455.31;5071022;28;20044;-78
2022/08/03 03:26:21;;;;;;;7.15;3.92;;;;;;;16.59;100.00;100473.25;5070495;28;20036;-78
2022/08/03 03:28:46;;;;;;;5.75;3.67;;;;;;;16.70;100.00;100487.41;5060921;28;20021;-78
2022/08/03 03:31:12;;;;;;;6.07;3.85;;;;;;;16.51;100.00;100451.72;5104438;28;20518;-78
2022/08/03 03:33:37;;;;;;;5.15;3.30;;;;;;;16.61;100.00;100463.38;5072061;28;20028;-78
2022/08/03 03:36:06;;;;;;;7.60;3.17;;;;;;;16.65;100.00;100475.44;5062796;28;20130;-78
2022/08/03 03:38:32;;;;;;;8.70;3.65;;;;;;;16.52;100.00;100453.41;5064062;28;20035;-78
2022/08/03 03:40:58;;;;;;;5.65;3.50;;;;;;;16.52;100.00;100459.56;5055574;28;20033;-76
2022/08/03 03:43:23;;;;;;;6.43;4.10;;;;;;;16.26;100.00;100423.47;5052794;28;20039;-76
2022/08/03 03:45:50;;;;;;;5.65;3.22;;;;;;;16.60;100.00;100477.59;5096798;28;20064;-76
2022/08/03 03:48:16;;;;;;;6.43;3.53;;;;;;;16.61;100.00;100487.25;5065093;28;20467;-77
2022/08/03 03:50:42;;;;;;;8.10;3.08;;;;;;;16.48;100.00;100462.53;5058666;28;20033;-77
2022/08/03 03:53:09;;;;;;;5.75;3.55;;;;;;;16.49;100.00;100461.59;5068534;28;20082;-78
2022/08/03 03:55:36;;;;;;;5.35;3.67;;;;;;;16.51;100.00;100471.13;5073694;28;20064;-77
2022/08/03 03:58:02;;;;;;;5.82;3.08;;;;;;;16.41;100.00;100456.00;5061666;28;20735;-76
2022/08/03 04:00:28;;;;;;;7.22;3.90;;;;;;;16.38;100.00;100459.72;5092537;28;20106;-77
2022/08/03 04:02:53;;;;;;;6.70;3.67;;;;;;;16.49;100.00;100470.41;5053639;28;20436;-76
2022/08/03 04:11:04;;;;;;;3.97;2.80;;;;;;;16.49;100.00;100464.25;5054106;28;20329;-76
2022/08/03 04:13:36;;;;;;;4.85;3.28;;;;;;;16.38;100.00;100451.78;5055666;28;20037;-76
2022/08/03 04:16:02;;;;;;;6.72;4.07;;;;;;;16.55;100.00;100474.41;5072076;28;20052;-76
2022/08/03 04:18:30;;;;;;;7.68;3.28;;;;;;;16.52;100.00;100474.63;5061017;28;20040;-76
2022/08/03 04:20:58;;;;;;;5.05;3.05;;;;;;;16.53;100.00;100471.00;5060540;28;20032;-77
2022/08/03 04:23:24;;;;;;;7.45;3.35;;;;;;;16.51;100.00;100467.63;5057633;28;20135;-77
2022/08/03 04:25:50;;;;;;;6.28;3.88;;;;;;;16.48;100.00;100470.50;5063292;28;20025;-76
2022/08/03 04:28:16;;;;;;;16.50;3.55;;;;;;;16.44;100.00;100461.06;5061165;28;20375;-76
2022/08/03 04:30:46;;;;;;;6.45;3.42;;;;;;;16.26;100.00;100436.75;5065647;28;20051;-76
2022/08/03 04:33:12;;;;;;;4.68;2.92;;;;;;;16.39;100.00;100457.94;5081472;28;20032;-76
2022/08/03 04:35:38;;;;;;;4.47;2.97;;;;;;;16.45;100.00;100468.09;5077957;28;20482;-76
2022/08/03 04:38:05;;;;;;;6.53;2.90;;;;;;;16.25;100.00;100438.56;5081140;28;20043;-77
2022/08/03 04:40:36;;;;;;;6.60;3.03;;;;;;;16.52;100.00;100482.59;5054673;28;20111;-76
2022/08/03 04:43:02;;;;;;;5.75;2.97;;;;;;;16.44;100.00;100477.00;5044189;28;20394;-76
2022/08/03 04:45:27;;;;;;;5.03;3.03;;;;;;;16.35;100.00;100463.47;5090008;28;20024;-76
2022/08/03 04:47:54;;;;;;;7.03;3.17;;;;;;;16.39;100.00;100460.56;5071541;28;20032;-76
2022/08/03 04:50:20;;;;;;;9.35;2.80;;;;;;;16.44;100.00;100461.06;5068022;28;20040;-76
2022/08/03 04:52:46;;;;;;;7.60;3.10;;;;;;;16.64;100.00;100489.66;5071054;28;20029;-76
2022/08/03 04:55:11;;;;;;;6.63;3.50;;;;;;;16.70;100.00;100497.16;5070518;28;20074;-76
2022/08/03 04:57:36;;;;;;;6.63;3.42;;;;;;;16.67;100.00;100487.63;5064792;28;20358;-76
2022/08/03 05:00:04;;;;;;;5.22;3.25;;;;;;;16.58;100.00;100463.59;5074459;28;20036;-76
2022/08/03 05:02:30;;;;;;;7.68;3.42;;;;;;;16.85;100.00;100501.34;5071615;28;20075;-76
2022/08/03 05:04:56;;;;;;;5.68;3.15;;;;;;;16.81;100.00;100481.31;5076483;28;20028;-76
2022/08/03 05:07:21;;;;;;;4.47;2.45;;;;;;;16.80;100.00;100475.16;5064640;28;20343;-76
2022/08/03 05:09:47;;;;;;;6.43;2.85;;;;;;;16.91;100.00;100484.97;5058771;28;20029;-76
2022/08/03 05:12:12;;;;;;;5.18;2.30;;;;;;;17.09;100.00;100499.53;5063247;28;20037;-76
2022/08/03 05:14:38;;;;;;;6.80;2.50;;;;;;;16.83;100.00;100447.56;5061357;28;20570;-76
2022/08/03 05:17:04;;;;;;;7.05;3.10;;;;;;;17.11;100.00;100486.09;5071087;28;20036;-76
2022/08/03 05:19:30;;;;;;;9.77;2.95;;;;;;;16.81;100.00;100428.22;5071001;28;20463;-76
2022/08/03 05:21:55;;;;;;;10.27;3.25;;;;;;;17.19;100.00;100497.88;5061200;28;20025;-77
2022/08/03 05:24:20;;;;;;;4.72;2.53;;;;;;;17.22;100.00;100502.94;5089711;28;20043;-77
2022/08/03 05:26:46;;;;;;;4.47;2.65;;;;;;;17.25;100.00;100496.53;5062426;28;20036;-76
2022/08/03 05:29:11;;;;;;;5.38;2.15;;;;;;;17.24;100.00;100482.41;5072009;28;20028;-77
2022/08/03 05:31:37;;;;;;;7.88;2.42;;;;;;;17.38;100.00;100486.66;5063221;28;20125;-76
2022/08/03 05:34:02;;;;;;;4.60;2.33;;;;;;;17.56;100.00;100503.88;5079900;28;20124;-76
2022/08/03 05:36:27;;;;;;;6.57;2.50;;;;;;;17.53;100.00;100487.31;5063260;28;20104;-77
2022/08/03 05:38:53;;;;;;;4.50;2.03;;;;;;;17.69;100.00;100488.69;5075805;28;20050;-77
2022/08/03 05:41:18;;;;;;;11.20;2.88;;;;;;;17.84;100.00;100494.63;5060690;28;20024;-77
2022/08/03 05:43:44;;;;;;;7.38;2.35;;;;;;;18.10;100.00;100512.00;5054439;28;20043;-77
2022/08/03 05:46:09;;;;;;;5.45;2.47;;;;;;;18.09;100.00;100493.50;5059764;28;20025;-77
2022/08/03 05:48:35;;;;;;;4.10;1.92;;;;;;;18.16;100.00;100490.22;5071411;28;20028;-77
2022/08/03 05:51:00;;;;;;;5.15;2.38;;;;;;;17.94;100.00;100442.41;5057716;28;20545;-77
2022/08/03 05:53:25;;;;;;;8.00;2.90;;;;;;;18.47;100.00;100514.38;5077858;28;20073;-77
2022/08/03 05:55:51;;;;;;;10.05;2.83;;;;;;;18.58;100.00;100515.22;5064179;28;20028;-77
2022/08/03 05:58:16;;;;;;;11.80;3.10;;;;;;;18.71;100.00;100518.59;5083224;28;20107;-76
2022/08/03 06:00:41;;;;;;;7.72;2.35;;;;;;;18.78;100.00;100498.47;5063489;28;20021;-77
2022/08/03 06:03:07;;;;;;;7.32;3.30;;;;;;;18.83;100.00;100487.41;5057925;28;20028;-76
2022/08/03 06:05:35;;;;;;;6.43;2.67;;;;;;;18.91;100.00;100486.78;5064529;28;20051;-77
2022/08/03 06:08:01;;;;;;;6.35;2.38;;;;;;;19.12;100.00;100511.66;5097259;28;20141;-77
2022/08/03 06:10:26;;;;;;;5.40;2.83;;;;;;;19.10;100.00;100495.78;5076646;28;20036;-78
2022/08/03 06:12:52;;;;;;;4.90;2.38;;;;;;;19.28;100.00;100515.56;5078699;28;20024;-77
2022/08/03 06:15:17;;;;;;;6.63;2.50;;;;;;;19.37;100.00;100501.44;5071994;28;20056;-77
2022/08/03 06:17:47;;;;;;;8.43;3.45;;;;;;;19.47;100.00;100500.72;5071858;28;20411;-77
2022/08/03 06:20:15;;;;;;;9.63;2.92;;;;;;;19.69;100.00;100513.88;5063966;28;20021;-78
2022/08/03 06:22:40;;;;;;;9.10;3.15;;;;;;;19.75;100.00;100510.66;5065759;28;20025;-77
2022/08/03 06:25:06;;;;;;;19.02;2.80;;;;;;;19.82;100.00;100501.16;5066472;28;20733;-77
2022/08/03 06:27:32;;;;;;;6.10;3.00;;;;;;;19.95;100.00;100504.44;5057397;28;20056;-76
2022/08/03 06:29:57;;;;;;;5.68;2.75;;;;;;;19.98;100.00;100487.31;5086114;28;20024;-77
2022/08/03 06:32:22;;;;;;;8.00;2.55;;;;;;;20.16;100.00;100489.22;5061765;28;20111;-77
2022/08/03 06:34:48;;;;;;;10.00;2.83;;;;;;;20.53;100.00;100515.34;5055944;28;20035;-78
2022/08/03 06:37:13;;;;;;;5.05;2.20;;;;;;;20.42;100.00;100489.59;5055307;28;20036;-77
2022/08/03 06:39:39;;;;;;;7.65;2.20;;;;;;;20.58;100.00;100499.75;5066382;28;20029;-77
2022/08/03 06:42:04;;;;;;;8.15;2.40;;;;;;;20.67;100.00;100499.78;5052011;28;20498;-77
2022/08/03 06:44:30;;;;;;;6.65;2.13;;;;;;;20.97;100.00;100508.63;5078752;28;20051;-77
2022/08/03 06:46:55;;;;;;;5.05;1.73;;;;;;;21.11;100.00;100503.75;5057934;28;20074;-77
2022/08/03 06:49:21;;;;;;;7.07;2.40;;;;;;;21.37;100.00;100510.19;5075806;28;20112;-77
2022/08/03 06:51:47;;;;;;;10.90;1.95;;;;;;;21.26;100.00;100470.22;5066694;28;20020;-77
2022/08/03 06:54:12;;;;;;;8.77;2.20;;;;;;;21.61;100.00;100512.41;5082191;28;20107;-77
2022/08/03 06:56:37;;;;;;;12.93;3.58;;;;;;;21.70;100.00;100508.84;5062160;28;20028;-78
2022/08/03 06:59:03;;;;;;;22.33;4.53;;;;;;;21.92;100.00;100526.41;5062127;28;20029;-77
2022/08/03 07:01:28;;;;;;;19.23;3.70;;;;;;;22.02;100.00;100519.19;5059397;28;20032;-76
2022/08/03 07:03:55;;;;;;;15.38;3.95;;;;;;;22.06;100.00;100501.00;5056748;28;20611;-77
2022/08/03 07:06:20;;;;;;;14.48;3.88;;;;;;;22.10;100.00;100489.88;5057839;28;20021;-77
2022/08/03 07:08:46;;;;;;;11.55;4.10;;;;;;;22.09;100.00;100473.94;5058994;28;20039;-77
2022/08/03 07:11:11;;;;;;;10.50;3.97;;;;;;;22.41;100.00;100503.75;5063128;28;21309;-77
2022/08/03 07:13:36;;;;;;;8.82;3.38;;;;;;;22.51;100.00;100509.09;5066442;28;20379;-78
2022/08/03 07:16:02;;;;;;;17.42;4.13;;;;;;;22.72;100.00;100531.94;5074338;28;20024;-76
2022/08/03 07:18:27;;;;;;;7.47;2.75;;;;;;;22.72;100.00;100521.22;5059145;28;20025;-76
2022/08/03 07:20:52;;;;;;;11.65;2.92;;;;;;;22.85;100.00;100531.56;5066098;28;20048;-77
2022/08/03 07:23:18;;;;;;;10.20;3.00;;;;;;;22.83;100.00;100512.13;5059223;28;20515;-78
2022/08/03 07:25:43;;;;;;;15.75;3.25;;;;;;;22.83;100.00;100502.25;5073436;28;20109;-78
2022/08/03 07:28:09;;;;;;;19.10;3.88;;;;;;;22.98;100.00;100515.97;5078952;28;20056;-78
2022/08/03 07:30:34;;;;;;;12.20;3.40;;;;;;;23.14;100.00;100529.53;5038611;28;20029;-79
2022/08/03 07:33:00;;;;;;;13.45;2.35;;;;;;;23.19;100.00;100523.66;5072761;28;20035;-76
2022/08/03 07:35:25;;;;;;;7.20;2.38;;;;;;;23.32;100.00;100535.69;5064500;28;20029;-76
2022/08/03 07:37:52;;;;;;;5.15;2.13;;;;;;;23.31;100.00;100531.34;5068306;28;20050;-77
2022/08/03 07:40:17;;;;;;;9.40;2.90;;;;;;;23.34;100.00;100522.97;5063191;28;20029;-78
2022/08/03 07:42:42;;;;;;;16.92;3.20;;;;;;;23.24;100.00;100508.81;5066303;28;20040;-77
2022/08/03 07:45:08;;;;;;;10.02;3.60;;;;;;;23.49;100.00;100539.38;5060948;28;20021;-76
2022/08/03 07:47:34;;;;;;;7.45;3.03;;;;;;;23.61;100.00;100529.25;5071642;28;20111;-78
2022/08/03 07:49:59;;;;;;;13.23;3.50;;;;;;;23.65;100.00;100526.09;5060646;28;20048;-79
2022/08/03 07:55:09;;;;;;;11.00;4.13;;;;;;;23.76;100.00;100512.38;5064489;28;20086;-79
2022/08/03 07:57:36;;;;;;;13.60;3.72;;;;;;;23.78;100.00;100504.19;5072580;28;20028;-79
2022/08/03 08:00:03;;;;;;;11.50;3.13;;;;;;;23.95;100.00;100515.84;5080138;28;20387;-77
2022/08/03 08:02:29;;;;;;;7.53;2.72;;;;;;;24.11;100.00;100526.66;5058191;28;20033;-79
2022/08/03 08:04:54;;;;;;;12.35;2.42;;;;;;;24.12;100.00;100518.50;5065348;28;20040;-74
2022/08/03 08:07:19;;;;;;;5.10;1.80;;;;;;;24.32;100.00;100541.41;5062954;28;20512;-77
2022/08/03 08:09:45;;;;;;;5.57;2.30;;;;;;;24.37;100.00;100528.31;5068604;28;20032;-78
2022/08/03 08:12:11;;;;;;;6.90;1.70;;;;;;;24.48;100.00;100539.78;5061226;28;20109;-77
2022/08/03 08:14:37;;;;;;;9.20;2.25;;;;;;;24.45;100.00;100524.00;5056122;28;20117;-76
2022/08/03 08:17:02;;;;;;;5.20;1.77;;;;;;;24.64;100.00;100534.47;5067071;28;20029;-79
2022/08/03 08:19:28;;;;;;;4.82;2.30;;;;;;;24.76;100.00;100535.84;5055459;28;20044;-77
2022/08/03 08:21:53;;;;;;;10.32;1.98;;;;;;;24.78;100.00;100515.00;5065059;28;20036;-78
2022/08/03 08:24:18;;;;;;;6.80;2.05;;;;;;;24.94;100.00;100544.66;5061885;28;20043;-76
2022/08/03 08:26:44;;;;;;;7.32;2.30;;;;;;;24.80;100.00;100510.31;5069334;28;20033;-78
2022/08/03 08:29:09;;;;;;;7.93;2.60;;;;;;;24.95;100.00;100527.50;5063030;28;20048;-78
2022/08/03 08:31:34;;;;;;;9.55;1.85;;;;;;;24.89;100.00;100503.97;5082312;28;20025;-71
2022/08/03 08:34:04;;;;;;;17.83;2.85;;;;;;;24.92;100.00;100500.94;5069704;28;20906;-73
2022/08/03 08:36:31;;;;;;;9.23;2.47;;;;;;;25.08;100.00;100510.91;5062826;28;20075;-78
2022/08/03 08:38:56;;;;;;;5.25;2.03;;;;;;;25.29;100.00;100525.50;5095184;27;20033;-78
2022/08/03 08:41:22;;;;;;;10.63;3.22;;;;;;;25.40;100.00;100535.94;5068809;28;20090;-73
2022/08/03 08:43:47;;;;;;;5.05;2.30;;;;;;;25.46;100.00;100528.19;5062394;28;20048;-76
2022/08/03 08:46:13;;;;;;;5.47;1.88;;;;;;;25.53;100.00;100529.22;5066836;28;20518;-76
2022/08/03 08:48:40;;;;;;;15.13;2.05;;;;;;;25.52;100.00;100523.00;5075884;28;20043;-78
2022/08/03 08:51:07;;;;;;;12.18;2.17;;;;;;;25.50;100.00;100526.84;5077177;28;20035;-77
2022/08/03 08:53:35;;;;;;;5.85;1.50;;;;;;;25.53;100.00;100537.31;5085105;28;20025;-77
2022/08/03 08:56:01;;;;;;;7.00;2.15;;;;;;;25.58;100.00;100534.97;5072673;28;20024;-78
2022/08/03 08:58:36;;;;;;;8.70;2.65;;;;;;;25.60;100.00;100527.53;5064266;28;20035;-77
2022/08/03 09:01:02;;;;;;;11.65;3.35;;;;;;;25.24;100.00;100457.94;5055105;28;20043;-76
2022/08/03 09:03:27;;;;;;;16.90;3.08;;;;;;;25.78;100.00;100530.88;5077073;28;20606;-76
2022/08/03 09:05:53;;;;;;;4.72;1.95;;;;;;;25.81;100.00;100514.38;5065359;28;20025;-77
2022/08/03 09:08:19;;;;;;;13.10;2.90;;;;;;;25.85;100.00;100515.72;5076003;28;20020;-75
2022/08/03 09:10:44;;;;;;;5.38;2.03;;;;;;;25.96;100.00;100518.03;5066097;28;20033;-75
2022/08/03 09:13:09;;;;;;;7.70;2.30;;;;;;;26.03;100.00;100510.94;5076380;28;20056;-78
2022/08/03 09:15:36;;;;;;;18.23;3.88;;;;;;;26.26;100.00;100530.75;5086184;27;20399;-79
2022/08/03 09:18:03;;;;;;;14.32;3.00;;;;;;;26.25;100.00;100514.78;5092404;28;20044;-78
2022/08/03 09:20:31;;;;;;;11.98;2.50;;;;;;;26.45;100.00;100534.03;5063188;28;20039;-78
2022/08/03 09:23:01;;;;;;;17.40;2.20;;;;;;;26.59;100.00;100541.41;5054061;28;20078;-78
2022/08/03 09:25:27;;;;;;;6.82;2.00;;;;;;;26.31;100.00;100489.81;5056645;28;20475;-79
2022/08/03 09:27:53;;;;;;;4.13;1.80;;;;;;;26.48;100.00;100514.81;5055728;28;20067;-77
2022/08/03 09:30:19;;;;;;;7.90;2.00;;;;;;;26.38;100.00;100478.16;5059203;28;20426;-73
2022/08/03 09:32:46;;;;;;;5.50;1.95;;;;;;;26.74;99.33;100526.13;5063820;28;20069;-76
2022/08/03 09:35:14;;;;;;;2.58;1.60;;;;;;;26.78;97.14;100522.06;5015982;28;20555;-77
2022/08/03 09:37:40;;;;;;;5.93;2.00;;;;;;;26.84;98.03;100524.91;5064578;28;20040;-77
2022/08/03 09:40:06;;;;;;;7.43;1.25;;;;;;;26.94;99.18;100527.38;5086336;28;20094;-78
2022/08/03 09:42:37;;;;;;;5.50;1.50;;;;;;;26.94;96.47;100505.78;5060619;28;20040;-79
2022/08/03 09:45:04;;;;;;;6.82;1.65;;;;;;;27.22;94.07;100528.53;5053391;28;20056;-79
2022/08/03 09:47:32;;;;;;;5.85;1.70;;;;;;;27.28;92.54;100522.38;5052693;28;20044;-75
2022/08/03 09:50:00;;;;;;;7.20;1.98;;;;;;;27.19;92.28;100506.44;5059370;28;20422;-79
2022/08/03 09:52:33;;;;;;;6.15;1.95;;;;;;;27.32;93.50;100523.72;5070876;28;20024;-80
2022/08/03 09:55:00;;;;;;;5.22;1.45;;;;;;;27.40;91.09;100520.94;5070578;28;20024;-77
2022/08/03 09:57:27;;;;;;;2.92;1.17;;;;;;;27.41;91.45;100505.56;5072203;28;20029;-79
2022/08/03 09:59:57;;;;;;;10.65;1.80;;;;;;;27.29;91.00;100480.88;5076948;28;20028;-78
2022/08/03 10:02:26;;;;;;;24.35;2.08;;;;;;;27.71;85.91;100537.06;5061676;28;20048;-70
2022/08/03 10:04:52;;;;;;;9.77;2.08;;;;;;;27.67;86.40;100505.19;5097047;28;20051;-77
2022/08/03 10:07:23;;;;;;;10.40;2.92;;;;;;;27.93;82.32;100514.53;5054890;28;20024;-78
2022/08/03 10:10:01;;;;;;;11.18;2.53;;;;;;;27.94;81.73;100515.38;5061067;28;20037;-75
2022/08/03 10:12:27;;;;;;;5.75;1.88;;;;;;;28.09;79.96;100527.03;5061775;28;20047;-79
2022/08/03 10:14:53;;;;;;;4.22;1.48;;;;;;;28.11;80.39;100524.16;5063347;28;20024;-77
2022/08/03 10:17:20;;;;;;;7.78;2.58;;;;;;;27.86;80.38;100474.91;5059387;28;20519;-77
2022/08/03 10:19:46;;;;;;;4.78;1.65;;;;;;;28.16;77.87;100517.16;5079816;28;20039;-79
2022/08/03 10:22:12;;;;;;;4.65;2.00;;;;;;;28.24;80.43;100508.94;5051927;28;20099;-79
2022/08/03 10:24:39;;;;;;;6.57;1.88;;;;;;;28.38;78.16;100510.81;5066075;28;20103;-78
2022/08/03 10:27:09;;;;;;;2.72;1.20;;;;;;;28.40;78.18;100513.31;5035657;28;20116;-75
2022/08/03 10:29:41;;;;;;;4.22;1.13;;;;;;;28.42;78.59;100516.69;5068745;28;20036;-79
2022/08/03 10:32:29;;;;;;;3.50;0.98;;;;;;;28.26;77.29;100479.84;5070196;28;20104;-78
2022/08/03 10:35:07;;;;;;;5.75;1.48;;;;;;;28.49;77.17;100509.47;5061224;28;20029;-79
2022/08/03 10:37:40;;;;;;;2.28;0.80;;;;;;;28.42;77.73;100493.16;5069656;28;20028;-79
2022/08/03 10:40:07;;;;;;;5.32;1.20;;;;;;;28.52;77.20;100473.09;5061485;28;20120;-77
2022/08/03 10:42:34;;;;;;;4.35;1.38;;;;;;;28.68;77.27;100494.53;5053778;28;20463;-76
2022/08/03 10:45:04;;;;;;;3.83;1.30;;;;;;;28.76;77.35;100497.13;5074884;28;20028;-77
2022/08/03 10:47:31;;;;;;;3.42;0.98;;;;;;;28.80;78.62;100498.38;5063225;28;20021;-79
2022/08/03 10:49:56;;;;;;;3.15;1.02;;;;;;;28.79;77.40;100494.88;5062094;28;20440;-78
2022/08/03 10:52:22;;;;;;;4.13;1.15;;;;;;;28.92;78.14;100492.28;5059750;28;20085;-77
2022/08/03 10:57:52;;;;;;;3.72;1.25;;;;;;;29.12;76.25;100491.63;5033939;28;20537;-79
2022/08/03 11:00:22;;;;;;;6.38;1.30;;;;;;;29.16;77.98;100491.06;5043102;28;20033;-77
2022/08/03 11:03:01;;;;;;;4.07;0.90;;;;;;;29.26;74.48;100488.06;5039464;28;20120;-75
2022/08/03 11:05:28;;;;;;;3.33;1.33;;;;;;;29.29;75.05;100483.09;5059108;28;20029;-79
2022/08/03 11:08:33;;;;;;;3.03;1.38;;;;;;;29.35;75.10;100482.28;5085955;28;20036;-76
2022/08/03 11:11:19;;;;;;;4.88;1.08;;;;;;;29.54;75.08;100488.06;5069990;28;20023;-80
2022/08/03 11:14:00;;;;;;;6.00;1.17;;;;;;;29.45;73.48;100443.19;5067803;28;20041;-77
2022/08/03 11:16:26;;;;;;;4.53;1.02;;;;;;;29.72;75.35;100455.88;5059009;28;20077;-79
2022/08/03 11:18:59;;;;;;;2.50;0.98;;;;;;;29.91;77.19;100449.78;5067657;28;20060;-79
2022/08/03 11:21:47;;;;;;;3.55;0.93;;;;;;;30.15;73.08;100461.94;5066120;28;20777;-76
2022/08/03 11:24:41;;;;;;;7.63;1.35;;;;;;;30.15;73.19;100468.22;5052340;28;20024;-79
2022/08/03 11:27:19;;;;;;;4.40;1.00;;;;;;;30.23;73.56;100459.91;5090866;28;20036;-79
2022/08/03 11:30:18;;;;;;;3.40;1.08;;;;;;;30.53;73.97;100454.19;5092549;27;20159;-79